DLH1VT EDDM-LGTS
Flight info
| Callsign | DLH1VT |
|---|---|
| Flight time | 1h 46m |
| Altitude | 29000 |
| Route | ROTAX4N ROTAX L603 LATLO DCT OBEDI/N0429F370 DCT KLAGY DCT MAGAM DCT IRDIV DCT PODOB DCT MEDUX UM867 KOGAT DCT ERANA T389 ALIKO |
| Aircraft | A320/M-SDE2E3FGIJ1LORWXYZ/HB1 |
Departure
| Time | 2026-05-05 21:00 |
|---|---|
| Airport | Munich Airport (EDDM) |
Arrival
| Time | 2026-05-05 22:47 |
|---|---|
| Airport | Thessaloniki Macedonia International Airport (LGTS) |
| Time | Latitude | Longitude | Altitude | Speed | Heading |
|---|---|---|---|---|---|
| 2026-05-05 20:47 | 48.35365 | 11.79752 | 1477 ft | 0 kts | 83° |
| 2026-05-05 20:52 | 48.35364 | 11.79736 | 1482 ft | 4 kts | 83° |
| 2026-05-05 20:52 | 48.35361 | 11.79695 | 1479 ft | 4 kts | 83° |
| 2026-05-05 20:52 | 48.35358 | 11.79663 | 1475 ft | 4 kts | 79° |
| 2026-05-05 20:53 | 48.35348 | 11.79628 | 1475 ft | 4 kts | 41° |
| 2026-05-05 20:53 | 48.35326 | 11.79612 | 1476 ft | 4 kts | 356° |
| 2026-05-05 20:53 | 48.35305 | 11.79616 | 1475 ft | 1 kts | 353° |
| 2026-05-05 20:55 | 48.35306 | 11.79616 | 1475 ft | 1 kts | 353° |
| 2026-05-05 20:55 | 48.35323 | 11.79613 | 1478 ft | 6 kts | 354° |
| 2026-05-05 20:56 | 48.35393 | 11.79602 | 1481 ft | 14 kts | 354° |
| 2026-05-05 20:56 | 48.35517 | 11.79579 | 1485 ft | 21 kts | 353° |
| 2026-05-05 20:56 | 48.35666 | 11.79553 | 1485 ft | 22 kts | 353° |
| 2026-05-05 20:56 | 48.35822 | 11.79525 | 1485 ft | 23 kts | 353° |
| 2026-05-05 20:57 | 48.35984 | 11.79497 | 1482 ft | 23 kts | 353° |
| 2026-05-05 20:57 | 48.36100 | 11.79508 | 1471 ft | 17 kts | 47° |
| 2026-05-05 20:57 | 48.36120 | 11.79668 | 1485 ft | 14 kts | 83° |
| 2026-05-05 20:57 | 48.36133 | 11.79829 | 1483 ft | 17 kts | 83° |
| 2026-05-05 20:58 | 48.36148 | 11.80044 | 1485 ft | 24 kts | 83° |
| 2026-05-05 20:58 | 48.36170 | 11.80322 | 1481 ft | 29 kts | 83° |
| 2026-05-05 20:58 | 48.36189 | 11.80549 | 1485 ft | 14 kts | 73° |
| 2026-05-05 20:58 | 48.36267 | 11.80573 | 1482 ft | 15 kts | 351° |
| 2026-05-05 20:59 | 48.36373 | 11.80478 | 1482 ft | 21 kts | 300° |
| 2026-05-05 20:59 | 48.36440 | 11.80258 | 1473 ft | 26 kts | 294° |
| 2026-05-05 20:59 | 48.36514 | 11.79998 | 1473 ft | 27 kts | 285° |
| 2026-05-05 20:59 | 48.36501 | 11.79677 | 1483 ft | 49 kts | 263° |
| 2026-05-05 21:00 | 48.36432 | 11.78800 | 1486 ft | 116 kts | 263° |
| 2026-05-05 21:00 | 48.36323 | 11.77342 | 1625 ft | 155 kts | 264° |
| 2026-05-05 21:00 | 48.36200 | 11.75743 | 2361 ft | 154 kts | 263° |
| 2026-05-05 21:00 | 48.36072 | 11.74119 | 2898 ft | 165 kts | 264° |
| 2026-05-05 21:01 | 48.35874 | 11.72303 | 3146 ft | 188 kts | 250° |
| 2026-05-05 21:01 | 48.34928 | 11.70803 | 3454 ft | 216 kts | 207° |
| 2026-05-05 21:01 | 48.33393 | 11.70406 | 4201 ft | 226 kts | 186° |
| 2026-05-05 21:01 | 48.31824 | 11.70397 | 5111 ft | 225 kts | 182° |
| 2026-05-05 21:02 | 48.30253 | 11.70491 | 5935 ft | 227 kts | 181° |
| 2026-05-05 21:02 | 48.28671 | 11.70850 | 6639 ft | 237 kts | 161° |
| 2026-05-05 21:02 | 48.27197 | 11.72186 | 7077 ft | 261 kts | 144° |
| 2026-05-05 21:02 | 48.25697 | 11.73917 | 7520 ft | 281 kts | 147° |
| 2026-05-05 21:03 | 48.24073 | 11.75635 | 8265 ft | 289 kts | 149° |
| 2026-05-05 21:03 | 48.22389 | 11.77334 | 9133 ft | 293 kts | 150° |
| 2026-05-05 21:03 | 48.20687 | 11.79028 | 10047 ft | 295 kts | 150° |
| 2026-05-05 21:03 | 48.18971 | 11.80737 | 10895 ft | 297 kts | 149° |
| 2026-05-05 21:04 | 48.17395 | 11.82793 | 11618 ft | 309 kts | 136° |
| 2026-05-05 21:04 | 48.15943 | 11.85347 | 11898 ft | 333 kts | 133° |
| 2026-05-05 21:04 | 48.14446 | 11.88064 | 12504 ft | 342 kts | 132° |
| 2026-05-05 21:04 | 48.12935 | 11.90840 | 13283 ft | 345 kts | 132° |
| 2026-05-05 21:05 | 48.11412 | 11.93638 | 14039 ft | 348 kts | 132° |
| 2026-05-05 21:05 | 48.09878 | 11.96449 | 14713 ft | 351 kts | 132° |
| 2026-05-05 21:05 | 48.08324 | 11.99286 | 15381 ft | 355 kts | 131° |
| 2026-05-05 21:05 | 48.06962 | 12.02406 | 15967 ft | 363 kts | 119° |
| 2026-05-05 21:06 | 48.05986 | 12.05920 | 16599 ft | 369 kts | 112° |
| 2026-05-05 21:06 | 48.05081 | 12.09536 | 17261 ft | 372 kts | 113° |
| 2026-05-05 21:06 | 48.04164 | 12.13166 | 17922 ft | 376 kts | 113° |
| 2026-05-05 21:06 | 48.03232 | 12.16843 | 18515 ft | 379 kts | 114° |
| 2026-05-05 21:07 | 48.02295 | 12.20537 | 19075 ft | 383 kts | 114° |
| 2026-05-05 21:07 | 48.01346 | 12.24271 | 19634 ft | 386 kts | 114° |
| 2026-05-05 21:07 | 48.00387 | 12.28033 | 20196 ft | 389 kts | 114° |
| 2026-05-05 21:07 | 47.99419 | 12.31825 | 20744 ft | 392 kts | 114° |
| 2026-05-05 21:08 | 47.98375 | 12.35595 | 21267 ft | 393 kts | 121° |
| 2026-05-05 21:08 | 47.96944 | 12.39063 | 21734 ft | 392 kts | 132° |
| 2026-05-05 21:08 | 47.95133 | 12.42072 | 22239 ft | 390 kts | 142° |
| 2026-05-05 21:08 | 47.93144 | 12.44842 | 22767 ft | 392 kts | 142° |
| 2026-05-05 21:09 | 47.91142 | 12.47623 | 23308 ft | 395 kts | 142° |
| 2026-05-05 21:09 | 47.89125 | 12.50425 | 23764 ft | 397 kts | 142° |
| 2026-05-05 21:09 | 47.87099 | 12.53241 | 24205 ft | 399 kts | 142° |
| 2026-05-05 21:09 | 47.85090 | 12.56031 | 24618 ft | 402 kts | 142° |
| 2026-05-05 21:10 | 47.83017 | 12.58912 | 25048 ft | 404 kts | 142° |
| 2026-05-05 21:10 | 47.80996 | 12.61750 | 25465 ft | 407 kts | 141° |
| 2026-05-05 21:10 | 47.78969 | 12.64717 | 25893 ft | 410 kts | 140° |
| 2026-05-05 21:10 | 47.76959 | 12.67740 | 26297 ft | 412 kts | 140° |
| 2026-05-05 21:11 | 47.74951 | 12.70795 | 26696 ft | 415 kts | 140° |
| 2026-05-05 21:11 | 47.72925 | 12.73873 | 26990 ft | 419 kts | 139° |
| 2026-05-05 21:11 | 47.70875 | 12.76965 | 27345 ft | 421 kts | 140° |
| 2026-05-05 21:11 | 47.68804 | 12.80063 | 27697 ft | 423 kts | 140° |
| 2026-05-05 21:12 | 47.66723 | 12.83158 | 28077 ft | 425 kts | 140° |
| 2026-05-05 21:12 | 47.64624 | 12.86265 | 28463 ft | 427 kts | 140° |
| 2026-05-05 21:12 | 47.62509 | 12.89380 | 28801 ft | 430 kts | 140° |
| 2026-05-05 21:12 | 47.60403 | 12.92485 | 28868 ft | 420 kts | 140° |
| 2026-05-05 21:13 | 47.58376 | 12.95488 | 28870 ft | 405 kts | 140° |
| 2026-05-05 21:13 | 47.56401 | 12.98414 | 28876 ft | 399 kts | 140° |
| 2026-05-05 21:13 | 47.52445 | 13.04231 | 28976 ft | 409 kts | 140° |
| 2026-05-05 21:14 | 47.50399 | 13.07220 | 29087 ft | 418 kts | 140° |
| 2026-05-05 21:14 | 47.48311 | 13.10271 | 29224 ft | 426 kts | 140° |
| 2026-05-05 21:14 | 47.46213 | 13.13339 | 29378 ft | 434 kts | 140° |
| 2026-05-05 21:14 | 47.44031 | 13.16539 | 29628 ft | 439 kts | 140° |
| 2026-05-05 21:15 | 47.41865 | 13.19720 | 30037 ft | 439 kts | 140° |
| 2026-05-05 21:15 | 47.39732 | 13.22853 | 30434 ft | 438 kts | 140° |
| 2026-05-05 21:15 | 47.37571 | 13.26020 | 30850 ft | 437 kts | 140° |
| 2026-05-05 21:15 | 47.35413 | 13.29171 | 31294 ft | 437 kts | 140° |
| 2026-05-05 21:16 | 47.33258 | 13.32325 | 31705 ft | 437 kts | 139° |
| 2026-05-05 21:16 | 47.31276 | 13.35741 | 32110 ft | 439 kts | 134° |
| 2026-05-05 21:16 | 47.29354 | 13.39240 | 32470 ft | 439 kts | 134° |
| 2026-05-05 21:16 | 47.27432 | 13.42734 | 32882 ft | 439 kts | 134° |
| 2026-05-05 21:17 | 47.25511 | 13.46220 | 33338 ft | 438 kts | 134° |
| 2026-05-05 21:17 | 47.23596 | 13.49692 | 33732 ft | 437 kts | 134° |
| 2026-05-05 21:17 | 47.21680 | 13.53165 | 34087 ft | 437 kts | 134° |
| 2026-05-05 21:17 | 47.19767 | 13.56636 | 34349 ft | 437 kts | 134° |
| 2026-05-05 21:18 | 47.17841 | 13.60119 | 34524 ft | 440 kts | 134° |
| 2026-05-05 21:18 | 47.15904 | 13.63614 | 34760 ft | 441 kts | 134° |
| 2026-05-05 21:18 | 47.13965 | 13.67110 | 34925 ft | 441 kts | 134° |
| 2026-05-05 21:18 | 47.12031 | 13.70596 | 34929 ft | 439 kts | 134° |
| 2026-05-05 21:19 | 47.08168 | 13.77532 | 34937 ft | 439 kts | 134° |
| 2026-05-05 21:19 | 47.04297 | 13.84469 | 34947 ft | 439 kts | 134° |
| 2026-05-05 21:20 | 47.00425 | 13.91396 | 34943 ft | 439 kts | 134° |
| 2026-05-05 21:20 | 46.96548 | 13.98305 | 34937 ft | 439 kts | 134° |
| 2026-05-05 21:21 | 46.92660 | 14.05208 | 34899 ft | 440 kts | 134° |
| 2026-05-05 21:21 | 46.88757 | 14.12136 | 34904 ft | 443 kts | 134° |
| 2026-05-05 21:22 | 46.85499 | 14.17916 | 34915 ft | 444 kts | 134° |
| 2026-05-05 21:22 | 46.80910 | 14.26031 | 34917 ft | 446 kts | 134° |
| 2026-05-05 21:23 | 46.76950 | 14.33003 | 34918 ft | 447 kts | 134° |
| 2026-05-05 21:23 | 46.73623 | 14.38851 | 34915 ft | 448 kts | 134° |
| 2026-05-05 21:24 | 46.69635 | 14.45827 | 34924 ft | 448 kts | 134° |
| 2026-05-05 21:24 | 46.65642 | 14.52797 | 34915 ft | 448 kts | 134° |
| 2026-05-05 21:25 | 46.61673 | 14.59736 | 34920 ft | 450 kts | 134° |
| 2026-05-05 21:25 | 46.57655 | 14.66741 | 34931 ft | 451 kts | 134° |
| 2026-05-05 21:26 | 46.53619 | 14.73727 | 34934 ft | 452 kts | 134° |
| 2026-05-05 21:26 | 46.49576 | 14.80719 | 34946 ft | 451 kts | 134° |
| 2026-05-05 21:27 | 46.45549 | 14.87722 | 34955 ft | 453 kts | 134° |
| 2026-05-05 21:27 | 46.41511 | 14.94742 | 34951 ft | 453 kts | 134° |
| 2026-05-05 21:28 | 46.37463 | 15.01744 | 34934 ft | 454 kts | 134° |
| 2026-05-05 21:28 | 46.33406 | 15.08746 | 34941 ft | 455 kts | 134° |
| 2026-05-05 21:29 | 46.29325 | 15.15759 | 34946 ft | 456 kts | 134° |
| 2026-05-05 21:29 | 46.25232 | 15.22774 | 34956 ft | 457 kts | 134° |
| 2026-05-05 21:30 | 46.21130 | 15.29792 | 34964 ft | 457 kts | 134° |
| 2026-05-05 21:30 | 46.17036 | 15.36791 | 34982 ft | 456 kts | 133° |
| 2026-05-05 21:31 | 46.12944 | 15.43765 | 34992 ft | 455 kts | 134° |
| 2026-05-05 21:31 | 46.08846 | 15.50715 | 34973 ft | 456 kts | 134° |
| 2026-05-05 21:32 | 46.04739 | 15.57675 | 34972 ft | 457 kts | 134° |
| 2026-05-05 21:32 | 46.00608 | 15.64653 | 34975 ft | 458 kts | 134° |
| 2026-05-05 21:33 | 45.96461 | 15.71627 | 34979 ft | 459 kts | 135° |
| 2026-05-05 21:33 | 45.92240 | 15.78412 | 34982 ft | 458 kts | 136° |
| 2026-05-05 21:34 | 45.87923 | 15.85148 | 34984 ft | 458 kts | 136° |
| 2026-05-05 21:34 | 45.83605 | 15.91887 | 34976 ft | 459 kts | 136° |
| 2026-05-05 21:35 | 45.79305 | 15.98646 | 34971 ft | 460 kts | 136° |
| 2026-05-05 21:35 | 45.75002 | 16.05428 | 34948 ft | 460 kts | 136° |
| 2026-05-05 21:36 | 45.70690 | 16.12193 | 34952 ft | 460 kts | 136° |
| 2026-05-05 21:36 | 45.66362 | 16.18946 | 34979 ft | 460 kts | 136° |
| 2026-05-05 21:37 | 45.62028 | 16.25695 | 34978 ft | 461 kts | 135° |
| 2026-05-05 21:37 | 45.57699 | 16.32432 | 34979 ft | 460 kts | 136° |
| 2026-05-05 21:38 | 45.53363 | 16.39153 | 34989 ft | 460 kts | 136° |
| 2026-05-05 21:38 | 45.49026 | 16.45855 | 34997 ft | 460 kts | 136° |
| 2026-05-05 21:39 | 45.44687 | 16.52562 | 34994 ft | 460 kts | 136° |
| 2026-05-05 21:39 | 45.40378 | 16.59199 | 35013 ft | 459 kts | 135° |
| 2026-05-05 21:40 | 45.36043 | 16.65855 | 35016 ft | 458 kts | 136° |
| 2026-05-05 21:40 | 45.31710 | 16.72494 | 34996 ft | 458 kts | 136° |
| 2026-05-05 21:41 | 45.27360 | 16.79139 | 34981 ft | 460 kts | 136° |
| 2026-05-05 21:41 | 45.22992 | 16.85798 | 34988 ft | 461 kts | 136° |
| 2026-05-05 21:42 | 45.18627 | 16.92445 | 34994 ft | 461 kts | 136° |
| 2026-05-05 21:42 | 45.14247 | 16.99078 | 34987 ft | 461 kts | 136° |
| 2026-05-05 21:43 | 45.09865 | 17.05698 | 34989 ft | 461 kts | 136° |
| 2026-05-05 21:43 | 45.05476 | 17.12304 | 34968 ft | 461 kts | 136° |
| 2026-05-05 21:44 | 45.00941 | 17.18699 | 34980 ft | 460 kts | 139° |
| 2026-05-05 21:44 | 44.96314 | 17.24933 | 34982 ft | 460 kts | 139° |
| 2026-05-05 21:45 | 44.91688 | 17.31179 | 34982 ft | 460 kts | 139° |
| 2026-05-05 21:45 | 44.87085 | 17.37463 | 34984 ft | 460 kts | 139° |
| 2026-05-05 21:46 | 44.82500 | 17.43739 | 35012 ft | 459 kts | 138° |
| 2026-05-05 21:46 | 44.77915 | 17.49990 | 34990 ft | 459 kts | 139° |
| 2026-05-05 21:47 | 44.73317 | 17.56229 | 34984 ft | 460 kts | 139° |
| 2026-05-05 21:47 | 44.68704 | 17.62480 | 34994 ft | 461 kts | 139° |
| 2026-05-05 21:48 | 44.64085 | 17.68726 | 35001 ft | 460 kts | 139° |
| 2026-05-05 21:48 | 44.59507 | 17.74912 | 35020 ft | 460 kts | 139° |
| 2026-05-05 21:49 | 44.54893 | 17.81120 | 35006 ft | 460 kts | 139° |
| 2026-05-05 21:49 | 44.50261 | 17.87325 | 35002 ft | 461 kts | 139° |
| 2026-05-05 21:50 | 44.45621 | 17.93534 | 35005 ft | 462 kts | 139° |
| 2026-05-05 21:50 | 44.40980 | 17.99735 | 35023 ft | 461 kts | 139° |
| 2026-05-05 21:51 | 44.36341 | 18.05921 | 35036 ft | 460 kts | 139° |
| 2026-05-05 21:51 | 44.31703 | 18.12082 | 35034 ft | 460 kts | 139° |
| 2026-05-05 21:52 | 44.24733 | 18.21325 | 35019 ft | 461 kts | 139° |
| 2026-05-05 21:53 | 44.20078 | 18.27486 | 35032 ft | 461 kts | 139° |
| 2026-05-05 21:53 | 44.15431 | 18.33629 | 35037 ft | 461 kts | 139° |
| 2026-05-05 21:54 | 44.10774 | 18.39760 | 35047 ft | 461 kts | 139° |
| 2026-05-05 21:54 | 44.06113 | 18.45876 | 35026 ft | 461 kts | 139° |
| 2026-05-05 21:55 | 44.01435 | 18.51993 | 35028 ft | 463 kts | 139° |
| 2026-05-05 21:55 | 43.96772 | 18.58087 | 35025 ft | 464 kts | 139° |
| 2026-05-05 21:56 | 43.92065 | 18.64232 | 35031 ft | 466 kts | 139° |
| 2026-05-05 21:56 | 43.87336 | 18.70378 | 35031 ft | 466 kts | 139° |
| 2026-05-05 21:57 | 43.82614 | 18.76519 | 35060 ft | 465 kts | 139° |
| 2026-05-05 21:57 | 43.77889 | 18.82644 | 35045 ft | 466 kts | 139° |
| 2026-05-05 21:58 | 43.73146 | 18.88770 | 35047 ft | 467 kts | 139° |
| 2026-05-05 21:58 | 43.68398 | 18.94893 | 35044 ft | 468 kts | 139° |
| 2026-05-05 21:59 | 43.63645 | 19.01016 | 35076 ft | 467 kts | 139° |
| 2026-05-05 21:59 | 43.58892 | 19.07119 | 35085 ft | 466 kts | 139° |
| 2026-05-05 22:00 | 43.54141 | 19.13194 | 35053 ft | 467 kts | 139° |
| 2026-05-05 22:00 | 43.49269 | 19.19118 | 35050 ft | 467 kts | 143° |
| 2026-05-05 22:01 | 43.44215 | 19.24746 | 35085 ft | 467 kts | 144° |
| 2026-05-05 22:01 | 43.39149 | 19.30324 | 35094 ft | 466 kts | 143° |
| 2026-05-05 22:02 | 43.34132 | 19.35966 | 35094 ft | 466 kts | 143° |
| 2026-05-05 22:02 | 43.29142 | 19.41634 | 35066 ft | 466 kts | 142° |
| 2026-05-05 22:03 | 43.24129 | 19.47306 | 35079 ft | 467 kts | 142° |
| 2026-05-05 22:03 | 43.19110 | 19.52943 | 35099 ft | 466 kts | 143° |
| 2026-05-05 22:04 | 43.14095 | 19.58550 | 35106 ft | 465 kts | 143° |
| 2026-05-05 22:04 | 43.09083 | 19.64134 | 35109 ft | 464 kts | 143° |
| 2026-05-05 22:05 | 43.04117 | 19.69677 | 35110 ft | 463 kts | 143° |
| 2026-05-05 22:05 | 42.99118 | 19.75240 | 35108 ft | 463 kts | 143° |
| 2026-05-05 22:06 | 42.94121 | 19.80802 | 35110 ft | 463 kts | 143° |
| 2026-05-05 22:06 | 42.89134 | 19.86338 | 35114 ft | 462 kts | 143° |
| 2026-05-05 22:07 | 42.84136 | 19.91853 | 35115 ft | 462 kts | 143° |
| 2026-05-05 22:07 | 42.79137 | 19.97359 | 35107 ft | 462 kts | 143° |
| 2026-05-05 22:08 | 42.74274 | 20.03062 | 35107 ft | 463 kts | 134° |
| 2026-05-05 22:08 | 42.70149 | 20.09810 | 35096 ft | 464 kts | 130° |
| 2026-05-05 22:09 | 42.66049 | 20.16589 | 35093 ft | 464 kts | 130° |
| 2026-05-05 22:09 | 42.61944 | 20.23351 | 35092 ft | 463 kts | 130° |
| 2026-05-05 22:10 | 42.57843 | 20.30082 | 35084 ft | 463 kts | 130° |
| 2026-05-05 22:10 | 42.53727 | 20.36817 | 35078 ft | 464 kts | 130° |
| 2026-05-05 22:11 | 42.49605 | 20.43545 | 35077 ft | 464 kts | 130° |
| 2026-05-05 22:11 | 42.45513 | 20.50228 | 35082 ft | 464 kts | 130° |
| 2026-05-05 22:12 | 42.41383 | 20.56956 | 35081 ft | 465 kts | 130° |
| 2026-05-05 22:12 | 42.37243 | 20.63675 | 35084 ft | 465 kts | 130° |
| 2026-05-05 22:13 | 42.33094 | 20.70384 | 35084 ft | 465 kts | 130° |
| 2026-05-05 22:13 | 42.28952 | 20.77088 | 35072 ft | 465 kts | 130° |
| 2026-05-05 22:14 | 42.25502 | 20.82669 | 35080 ft | 466 kts | 130° |
| 2026-05-05 22:14 | 42.21338 | 20.89375 | 35048 ft | 466 kts | 130° |
| 2026-05-05 22:15 | 42.17170 | 20.96068 | 35067 ft | 467 kts | 130° |
| 2026-05-05 22:15 | 42.12990 | 21.02768 | 35064 ft | 467 kts | 130° |
| 2026-05-05 22:16 | 42.08501 | 21.09062 | 35062 ft | 466 kts | 137° |
| 2026-05-05 22:16 | 42.03773 | 21.15057 | 35062 ft | 467 kts | 137° |
| 2026-05-05 22:17 | 41.99045 | 21.21051 | 35047 ft | 468 kts | 137° |
| 2026-05-05 22:17 | 41.94306 | 21.27052 | 35049 ft | 468 kts | 137° |
| 2026-05-05 22:18 | 41.89564 | 21.33050 | 35041 ft | 468 kts | 137° |
| 2026-05-05 22:18 | 41.84822 | 21.39032 | 35046 ft | 469 kts | 137° |
| 2026-05-05 22:19 | 41.80046 | 21.45041 | 35055 ft | 476 kts | 137° |
| 2026-05-05 22:19 | 41.75178 | 21.51144 | 34795 ft | 480 kts | 137° |
| 2026-05-05 22:19 | 41.72759 | 21.54171 | 34326 ft | 474 kts | 137° |
| 2026-05-05 22:20 | 41.70358 | 21.57170 | 33852 ft | 470 kts | 137° |
| 2026-05-05 22:20 | 41.67982 | 21.60139 | 33350 ft | 465 kts | 137° |
| 2026-05-05 22:20 | 41.65628 | 21.63078 | 32833 ft | 461 kts | 138° |
| 2026-05-05 22:20 | 41.63293 | 21.65991 | 32339 ft | 457 kts | 138° |
| 2026-05-05 22:21 | 41.60978 | 21.68876 | 31847 ft | 453 kts | 138° |
| 2026-05-05 22:21 | 41.58680 | 21.71734 | 31372 ft | 450 kts | 138° |
| 2026-05-05 22:21 | 41.56400 | 21.74570 | 30904 ft | 446 kts | 138° |
| 2026-05-05 22:21 | 41.54146 | 21.77375 | 30448 ft | 442 kts | 138° |
| 2026-05-05 22:22 | 41.51901 | 21.80163 | 29933 ft | 439 kts | 138° |
| 2026-05-05 22:22 | 41.49672 | 21.82928 | 29358 ft | 436 kts | 138° |
| 2026-05-05 22:22 | 41.47460 | 21.85669 | 28807 ft | 432 kts | 138° |
| 2026-05-05 22:22 | 41.45264 | 21.88385 | 28275 ft | 429 kts | 137° |
| 2026-05-05 22:23 | 41.43220 | 21.91174 | 27753 ft | 425 kts | 131° |
| 2026-05-05 22:23 | 41.41290 | 21.94148 | 27179 ft | 423 kts | 130° |
| 2026-05-05 22:23 | 41.39379 | 21.97119 | 26617 ft | 421 kts | 130° |
| 2026-05-05 22:23 | 41.37474 | 22.00076 | 26065 ft | 420 kts | 130° |
| 2026-05-05 22:24 | 41.35577 | 22.03017 | 25521 ft | 418 kts | 130° |
| 2026-05-05 22:24 | 41.33685 | 22.05941 | 25009 ft | 416 kts | 130° |
| 2026-05-05 22:24 | 41.31799 | 22.08849 | 24479 ft | 414 kts | 130° |
| 2026-05-05 22:24 | 41.29928 | 22.11727 | 23960 ft | 411 kts | 130° |
| 2026-05-05 22:25 | 41.28061 | 22.14597 | 23384 ft | 410 kts | 130° |
| 2026-05-05 22:25 | 41.26196 | 22.17471 | 22706 ft | 410 kts | 130° |
| 2026-05-05 22:25 | 41.24331 | 22.20347 | 22038 ft | 411 kts | 130° |
| 2026-05-05 22:25 | 41.22467 | 22.23223 | 21386 ft | 411 kts | 130° |
| 2026-05-05 22:26 | 41.20600 | 22.26092 | 20756 ft | 410 kts | 130° |
| 2026-05-05 22:26 | 41.18737 | 22.28955 | 20138 ft | 409 kts | 130° |
| 2026-05-05 22:26 | 41.16883 | 22.31805 | 19527 ft | 408 kts | 130° |
| 2026-05-05 22:26 | 41.15030 | 22.34655 | 18921 ft | 407 kts | 130° |
| 2026-05-05 22:27 | 41.13183 | 22.37500 | 18336 ft | 406 kts | 130° |
| 2026-05-05 22:27 | 41.11342 | 22.40336 | 17679 ft | 405 kts | 130° |
| 2026-05-05 22:27 | 41.09506 | 22.43161 | 17030 ft | 404 kts | 130° |
| 2026-05-05 22:27 | 41.07674 | 22.45976 | 16385 ft | 402 kts | 130° |
| 2026-05-05 22:28 | 41.05837 | 22.48767 | 15754 ft | 401 kts | 130° |
| 2026-05-05 22:28 | 41.04000 | 22.51542 | 15137 ft | 400 kts | 130° |
| 2026-05-05 22:28 | 41.02195 | 22.54263 | 14539 ft | 398 kts | 130° |
| 2026-05-05 22:28 | 41.00370 | 22.57007 | 13946 ft | 396 kts | 130° |
| 2026-05-05 22:29 | 40.98554 | 22.59736 | 13290 ft | 394 kts | 130° |
| 2026-05-05 22:29 | 40.96751 | 22.62450 | 12637 ft | 391 kts | 130° |
| 2026-05-05 22:29 | 40.94947 | 22.65178 | 11991 ft | 387 kts | 130° |
| 2026-05-05 22:29 | 40.93185 | 22.67853 | 11364 ft | 384 kts | 130° |
| 2026-05-05 22:30 | 40.91470 | 22.70470 | 10757 ft | 380 kts | 130° |
| 2026-05-05 22:30 | 40.89756 | 22.73103 | 10155 ft | 376 kts | 130° |
| 2026-05-05 22:30 | 40.88071 | 22.75711 | 9526 ft | 371 kts | 130° |
| 2026-05-05 22:30 | 40.86431 | 22.78255 | 8810 ft | 355 kts | 130° |
| 2026-05-05 22:31 | 40.84846 | 22.80680 | 7984 ft | 343 kts | 130° |
| 2026-05-05 22:31 | 40.83305 | 22.83021 | 7170 ft | 333 kts | 130° |
| 2026-05-05 22:31 | 40.81806 | 22.85305 | 6373 ft | 325 kts | 130° |
| 2026-05-05 22:31 | 40.80204 | 22.87346 | 5521 ft | 318 kts | 145° |
| 2026-05-05 22:32 | 40.78289 | 22.88641 | 5000 ft | 301 kts | 162° |
| 2026-05-05 22:32 | 40.76330 | 22.89320 | 4625 ft | 282 kts | 167° |
| 2026-05-05 22:32 | 40.74481 | 22.89911 | 4261 ft | 265 kts | 167° |
| 2026-05-05 22:32 | 40.72740 | 22.90469 | 3922 ft | 250 kts | 167° |
| 2026-05-05 22:33 | 40.71098 | 22.90995 | 3604 ft | 236 kts | 167° |
| 2026-05-05 22:33 | 40.69539 | 22.91493 | 3310 ft | 225 kts | 167° |
| 2026-05-05 22:33 | 40.68054 | 22.91968 | 3024 ft | 215 kts | 167° |
| 2026-05-05 22:33 | 40.66624 | 22.92424 | 2744 ft | 207 kts | 167° |
| 2026-05-05 22:34 | 40.65246 | 22.92864 | 2476 ft | 200 kts | 167° |
| 2026-05-05 22:34 | 40.63902 | 22.93293 | 2219 ft | 198 kts | 167° |
| 2026-05-05 22:34 | 40.62596 | 22.93710 | 1978 ft | 188 kts | 166° |
| 2026-05-05 22:34 | 40.61384 | 22.94096 | 1728 ft | 172 kts | 166° |
| 2026-05-05 22:35 | 40.60268 | 22.94451 | 1511 ft | 157 kts | 165° |
| 2026-05-05 22:35 | 40.59246 | 22.94775 | 1332 ft | 144 kts | 166° |
| 2026-05-05 22:35 | 40.58281 | 22.95072 | 1108 ft | 142 kts | 165° |
| 2026-05-05 22:35 | 40.57325 | 22.95366 | 921 ft | 141 kts | 165° |
| 2026-05-05 22:36 | 40.56363 | 22.95668 | 755 ft | 143 kts | 164° |
| 2026-05-05 22:36 | 40.55383 | 22.95977 | 472 ft | 147 kts | 164° |
| 2026-05-05 22:36 | 40.54395 | 22.96310 | 322 ft | 148 kts | 163° |
| 2026-05-05 22:36 | 40.53386 | 22.96639 | 115 ft | 150 kts | 162° |
| 2026-05-05 22:37 | 40.52379 | 22.96976 | 145 ft | 155 kts | 163° |
| 2026-05-05 22:37 | 40.51303 | 22.97304 | 802 ft | 168 kts | 165° |
| 2026-05-05 22:37 | 40.50069 | 22.97641 | 1411 ft | 193 kts | 167° |
| 2026-05-05 22:37 | 40.48706 | 22.97988 | 1969 ft | 203 kts | 168° |
| 2026-05-05 22:38 | 40.47293 | 22.98333 | 2748 ft | 209 kts | 178° |
| 2026-05-05 22:38 | 40.45911 | 22.97799 | 3524 ft | 213 kts | 219° |
| 2026-05-05 22:38 | 40.45138 | 22.96169 | 4337 ft | 216 kts | 259° |
| 2026-05-05 22:38 | 40.45147 | 22.94174 | 4870 ft | 222 kts | 274° |
| 2026-05-05 22:39 | 40.45403 | 22.92209 | 5000 ft | 218 kts | 289° |
| 2026-05-05 22:39 | 40.45997 | 22.90396 | 4796 ft | 216 kts | 298° |
| 2026-05-05 22:39 | 40.47021 | 22.88976 | 4496 ft | 217 kts | 325° |
| 2026-05-05 22:39 | 40.48333 | 22.88030 | 4260 ft | 216 kts | 337° |
| 2026-05-05 22:40 | 40.49773 | 22.87474 | 4015 ft | 217 kts | 344° |
| 2026-05-05 22:40 | 40.51246 | 22.87035 | 3766 ft | 217 kts | 346° |
| 2026-05-05 22:40 | 40.52719 | 22.86602 | 3499 ft | 217 kts | 345° |
| 2026-05-05 22:40 | 40.54192 | 22.86183 | 3236 ft | 216 kts | 349° |
| 2026-05-05 22:41 | 40.55696 | 22.86082 | 3061 ft | 218 kts | 359° |
| 2026-05-05 22:41 | 40.57217 | 22.86121 | 3032 ft | 220 kts | 0° |
| 2026-05-05 22:41 | 40.58743 | 22.86212 | 3035 ft | 221 kts | 7° |
| 2026-05-05 22:41 | 40.60242 | 22.86645 | 3035 ft | 221 kts | 14° |
| 2026-05-05 22:42 | 40.61714 | 22.87189 | 2980 ft | 217 kts | 15° |
| 2026-05-05 22:42 | 40.63169 | 22.87733 | 2593 ft | 218 kts | 16° |
| 2026-05-05 22:42 | 40.64581 | 22.88261 | 2552 ft | 205 kts | 20° |
| 2026-05-05 22:42 | 40.65839 | 22.89029 | 2533 ft | 200 kts | 30° |
| 2026-05-05 22:43 | 40.66807 | 22.90249 | 2515 ft | 189 kts | 67° |
| 2026-05-05 22:43 | 40.66839 | 22.91860 | 2522 ft | 175 kts | 120° |
| 2026-05-05 22:43 | 40.65939 | 22.92801 | 2499 ft | 168 kts | 170° |
| 2026-05-05 22:43 | 40.64774 | 22.92973 | 2366 ft | 170 kts | 169° |
| 2026-05-05 22:44 | 40.63633 | 22.93353 | 2153 ft | 169 kts | 166° |
| 2026-05-05 22:44 | 40.62504 | 22.93729 | 1940 ft | 165 kts | 166° |
| 2026-05-05 22:44 | 40.61397 | 22.94088 | 1726 ft | 163 kts | 166° |
| 2026-05-05 22:44 | 40.60302 | 22.94439 | 1510 ft | 162 kts | 165° |
| 2026-05-05 22:45 | 40.59253 | 22.94775 | 1306 ft | 146 kts | 166° |
| 2026-05-05 22:45 | 40.58293 | 22.95075 | 1079 ft | 139 kts | 166° |
| 2026-05-05 22:45 | 40.57353 | 22.95353 | 894 ft | 137 kts | 165° |
| 2026-05-05 22:45 | 40.56446 | 22.95653 | 743 ft | 133 kts | 162° |
| 2026-05-05 22:46 | 40.55524 | 22.95951 | 523 ft | 138 kts | 165° |
| 2026-05-05 22:46 | 40.54595 | 22.96263 | 372 ft | 138 kts | 166° |
| 2026-05-05 22:46 | 40.53652 | 22.96565 | 183 ft | 140 kts | 166° |
| 2026-05-05 22:46 | 40.52711 | 22.96860 | 29 ft | 134 kts | 163° |
| 2026-05-05 22:47 | 40.51905 | 22.97120 | 13 ft | 98 kts | 165° |
| 2026-05-05 22:47 | 40.51406 | 22.97275 | 15 ft | 49 kts | 167° |
| 2026-05-05 22:47 | 40.51111 | 22.97372 | 9 ft | 43 kts | 165° |
| 2026-05-05 22:47 | 40.50960 | 22.97451 | 6 ft | 17 kts | 115° |
| 2026-05-05 22:48 | 40.51008 | 22.97576 | 8 ft | 17 kts | 8° |
| 2026-05-05 22:48 | 40.51132 | 22.97544 | 10 ft | 19 kts | 348° |
| 2026-05-05 22:48 | 40.51266 | 22.97500 | 10 ft | 21 kts | 345° |
| 2026-05-05 22:48 | 40.51412 | 22.97454 | 11 ft | 22 kts | 347° |
| 2026-05-05 22:49 | 40.51568 | 22.97406 | 13 ft | 24 kts | 347° |
| 2026-05-05 22:49 | 40.51733 | 22.97351 | 14 ft | 25 kts | 346° |
| 2026-05-05 22:49 | 40.51909 | 22.97295 | 12 ft | 27 kts | 347° |
| 2026-05-05 22:49 | 40.52070 | 22.97246 | 14 ft | 14 kts | 2° |
| 2026-05-05 22:50 | 40.52093 | 22.97351 | 14 ft | 15 kts | 104° |
| 2026-05-05 22:50 | 40.52067 | 22.97487 | 14 ft | 16 kts | 103° |
| 2026-05-05 22:50 | 40.52040 | 22.97636 | 15 ft | 18 kts | 103° |
| 2026-05-05 22:50 | 40.52098 | 22.97710 | 17 ft | 16 kts | 340° |
| 2026-05-05 22:51 | 40.52160 | 22.97581 | 15 ft | 18 kts | 293° |
| 2026-05-05 22:51 | 40.52248 | 22.97445 | 15 ft | 21 kts | 314° |
| 2026-05-05 22:51 | 40.52328 | 22.97342 | 15 ft | 6 kts | 316° |
| 2026-05-05 22:51 | 40.52357 | 22.97334 | 15 ft | 4 kts | 29° |
| 2026-05-05 22:52 | 40.52365 | 22.97343 | 15 ft | 1 kts | 39° |
| 2026-05-05 22:52 | 40.52367 | 22.97344 | 15 ft | 0 kts | 40° |